Marshfield, MA

8:01 AM EDT on April 26, 2017 (GMT -0400)
Marshfield

Weather History for KGHG - August, 2013

Change the Weather History Date:

Tuesday, August 20, 2013

  Actual Average (KPYM) Record (KPYM)
Temperature  
Mean Temperature 73 °F -  
Max Temperature 82 °F 77 °F 93 °F (1955)
Min Temperature 64 °F 56 °F 41 °F (1981)
Cooling Degree Days 8    
Growing Degree Days 23 (Base 50)    
Moisture  
Dew Point 64 °F    
Average Humidity 72    
Maximum Humidity 94    
Minimum Humidity 51    
Precipitation  
Precipitation 0.00 in - - ()
Sea Level Pressure  
Sea Level Pressure 30.05 in    
Wind  
Wind Speed 4 mph (WSW)    
Max Wind Speed 8 mph    
Max Gust Speed -    
Visibility 10 miles    
Events      
Averages and records for this station are not official NWS values.
T = Trace of Precipitation, MM = Missing Value Source: NWS Daily Summary

Daily Weather History Graph

Daily Weather History Graph

Search for Another Location

Airport or City:

Trip Planner

Search our weather history database for the weather conditions in past years. The results will help you decide how hot, cold, wet, or windy it might be!

Date:

Astronomy

Aug. 20, 2013 Rise Set
Actual Time 5:55 AM EDT 7:35 PM EDT
Civil Twilight 5:26 AM EDT 8:04 PM EDT
Nautical Twilight 4:50 AM EDT 8:40 PM EDT
Astronomical Twilight 4:11 AM EDT 9:19 PM EDT
Moon 7:03 PM EDT (8/20) 5:22 AM EDT (8/20)
Length of Visible Light 14h 38m
Length of Day
13h 39m
Full, 100% of the Moon is Illuminated
Aug 20
Full
Aug 20
Full
Aug 28
Last Quarter
Sep 5
New
Sep 12
First Quarter

Hourly Weather History & Observations

Time (EDT) Temp. Heat Index Dew Point Humidity Pressure Visibility Wind Dir Wind Speed Gust Speed Precip Events Conditions
12:15 AM 71.6 °F - 62.6 °F 73% 30.00 in 10.0 mi West 5.8 mph - N/A   Clear
12:35 AM 71.6 °F - 62.6 °F 73% 30.00 in 10.0 mi WSW 5.8 mph - N/A   Clear
12:55 AM 71.6 °F - 62.6 °F 73% 30.00 in 10.0 mi WSW 3.5 mph - N/A   Clear
1:15 AM 71.6 °F - 62.6 °F 73% 29.99 in 10.0 mi WSW 3.5 mph - N/A   Clear
1:35 AM 69.8 °F - 62.6 °F 78% 29.99 in 10.0 mi WSW 4.6 mph - N/A   Clear
1:55 AM 69.8 °F - 62.6 °F 78% 29.99 in 10.0 mi WSW 3.5 mph - N/A   Clear
2:15 AM 69.8 °F - 62.6 °F 78% 29.99 in 10.0 mi West 4.6 mph - N/A   Clear
2:35 AM 69.8 °F - 62.6 °F 78% 29.99 in 10.0 mi West 4.6 mph - N/A   Clear
2:55 AM 69.8 °F - 62.6 °F 78% 30.00 in 10.0 mi WSW 4.6 mph - N/A   Clear
3:15 AM 69.8 °F - 62.6 °F 78% 29.99 in 10.0 mi West 4.6 mph - N/A   Clear
3:35 AM 68.0 °F - 62.6 °F 83% 30.00 in 10.0 mi WSW 3.5 mph - N/A   Clear
3:55 AM 66.2 °F - 62.6 °F 88% 30.00 in 10.0 mi WSW 3.5 mph - N/A   Clear
4:15 AM 66.2 °F - 62.6 °F 88% 30.00 in 10.0 mi WSW 3.5 mph - N/A   Clear
4:55 AM 66.2 °F - 62.6 °F 88% 30.02 in 10.0 mi WSW 3.5 mph - N/A   Clear
5:15 AM 66.2 °F - 62.6 °F 88% 30.02 in 10.0 mi SW 3.5 mph - N/A   Clear
5:35 AM 64.4 °F - 62.6 °F 94% 30.02 in 10.0 mi Calm Calm - N/A   Clear
5:55 AM 64.4 °F - 62.6 °F 94% 30.03 in 10.0 mi WSW 3.5 mph - N/A   Clear
6:15 AM 64.4 °F - 62.6 °F 94% 30.04 in 10.0 mi West 4.6 mph - N/A   Clear
6:35 AM 66.2 °F - 62.6 °F 88% 30.04 in 10.0 mi West 4.6 mph - N/A   Clear
6:55 AM 66.2 °F - 62.6 °F 88% 30.04 in 10.0 mi West 4.6 mph - N/A   Clear
7:15 AM 69.8 °F - 62.6 °F 78% 30.05 in 10.0 mi Calm Calm - N/A   Clear
7:35 AM 69.8 °F - 62.6 °F 78% 30.05 in 10.0 mi Calm Calm - N/A   Clear
7:55 AM 73.4 °F - 62.6 °F 69% 30.06 in 10.0 mi WNW 3.5 mph - N/A   Clear
8:15 AM 73.4 °F - 62.6 °F 69% 30.06 in 10.0 mi Calm Calm - N/A   Clear
8:35 AM 75.2 °F - 62.6 °F 65% 30.06 in 10.0 mi West 3.5 mph - N/A   Clear
8:55 AM 77.0 °F - 62.6 °F 61% 30.06 in 10.0 mi Calm Calm - N/A   Clear
9:15 AM 78.8 °F - 62.6 °F 57% 30.06 in 10.0 mi NW 3.5 mph - N/A   Clear
9:35 AM 78.8 °F - 62.6 °F 57% 30.07 in 10.0 mi North 3.5 mph - N/A   Clear
9:55 AM 78.8 °F - 62.6 °F 57% 30.07 in 10.0 mi North 3.5 mph - N/A   Clear
10:15 AM 80.6 °F 81.5 °F 60.8 °F 51% 30.07 in 10.0 mi North 3.5 mph - N/A   Clear
10:35 AM 80.6 °F 81.8 °F 62.6 °F 54% 30.08 in 10.0 mi NNE 4.6 mph - N/A   Clear
10:55 AM 80.6 °F 81.8 °F 62.6 °F 54% 30.08 in 10.0 mi NNE 4.6 mph - N/A   Clear
11:15 AM 80.6 °F 81.8 °F 62.6 °F 54% 30.08 in 10.0 mi NE 5.8 mph - N/A   Clear
11:35 AM 80.6 °F 81.5 °F 60.8 °F 51% 30.08 in 10.0 mi ENE 6.9 mph - N/A   Clear
11:55 AM 80.6 °F 81.5 °F 60.8 °F 51% 30.08 in 10.0 mi NE 5.8 mph - N/A   Clear
12:15 PM 80.6 °F 81.5 °F 60.8 °F 51% 30.07 in 10.0 mi NE 3.5 mph - N/A   Clear
12:35 PM 80.6 °F 81.8 °F 62.6 °F 54% 30.07 in 10.0 mi NE 3.5 mph - N/A   Clear
12:55 PM 80.6 °F 81.8 °F 62.6 °F 54% 30.07 in 10.0 mi East 5.8 mph - N/A   Clear
1:15 PM 82.4 °F 83.4 °F 62.6 °F 51% 30.07 in 10.0 mi East 6.9 mph - N/A   Clear
1:35 PM 80.6 °F 81.8 °F 62.6 °F 54% 30.07 in 10.0 mi ENE 6.9 mph - N/A   Partly Cloudy
1:55 PM 82.4 °F 83.9 °F 64.4 °F 54% 30.06 in 10.0 mi NE 5.8 mph - N/A   Light Drizzle
2:15 PM 80.6 °F 82.3 °F 64.4 °F 58% 30.06 in 10.0 mi East 6.9 mph - N/A   Partly Cloudy
2:35 PM 78.8 °F - 64.4 °F 61% 30.06 in 10.0 mi East 6.9 mph - N/A   Scattered Clouds
2:55 PM 80.6 °F 81.8 °F 62.6 °F 54% 30.06 in 10.0 mi East 8.1 mph - N/A   Partly Cloudy
3:15 PM 78.8 °F - 64.4 °F 61% 30.05 in 10.0 mi East 8.1 mph - N/A   Clear
3:35 PM 78.8 °F - 64.4 °F 61% 30.05 in 10.0 mi East 5.8 mph - N/A   Clear
3:55 PM 78.8 °F - 66.2 °F 65% 30.05 in 10.0 mi East 6.9 mph - N/A   Clear
4:15 PM 78.8 °F - 66.2 °F 65% 30.05 in 10.0 mi SE 6.9 mph - N/A   Clear
4:35 PM 80.6 °F 82.7 °F 66.2 °F 61% 30.05 in 10.0 mi SE 6.9 mph - N/A   Clear
4:55 PM 78.8 °F - 66.2 °F 65% 30.05 in 10.0 mi East 5.8 mph - N/A   Clear
5:15 PM 80.6 °F 82.7 °F 66.2 °F 61% 30.06 in 10.0 mi ESE 4.6 mph - N/A   Clear
5:35 PM 78.8 °F - 66.2 °F 65% 30.06 in 10.0 mi East 4.6 mph - N/A   Clear
5:55 PM 80.6 °F 82.7 °F 66.2 °F 61% 30.06 in 10.0 mi Calm Calm - N/A   Clear
6:15 PM 80.6 °F 83.2 °F 68.0 °F 65% 30.06 in 10.0 mi Calm Calm - N/A   Clear
6:35 PM 80.6 °F 83.2 °F 68.0 °F 65% 30.06 in 10.0 mi Calm Calm - N/A   Clear
6:55 PM 77.0 °F - 69.8 °F 78% 30.07 in 10.0 mi Calm Calm - N/A   Clear
7:15 PM 75.2 °F - 69.8 °F 83% 30.07 in 10.0 mi Calm Calm - N/A   Clear
7:35 PM 73.4 °F - 69.8 °F 88% 30.07 in 10.0 mi Calm Calm - N/A   Clear
7:55 PM 71.6 °F - 69.8 °F 94% 30.08 in 10.0 mi Calm Calm - N/A   Clear
8:15 PM 69.8 °F - 68.0 °F 94% 30.08 in 10.0 mi Calm Calm - N/A   Clear
8:35 PM 69.8 °F - 68.0 °F 94% 30.09 in 10.0 mi SSW 3.5 mph - N/A   Clear
8:55 PM 71.6 °F - 66.2 °F 83% 30.09 in 10.0 mi Calm Calm - N/A   Clear
9:15 PM 71.6 °F - 64.4 °F 78% 30.10 in 10.0 mi SW 3.5 mph - N/A   Clear
9:35 PM 68.0 °F - 64.4 °F 88% 30.10 in 10.0 mi SW 3.5 mph - N/A   Clear
10:15 PM 68.0 °F - 64.4 °F 88% 30.10 in 10.0 mi Calm Calm - N/A   Clear
11:15 PM 66.2 °F - 64.4 °F 94% 30.10 in 10.0 mi WSW 3.5 mph - N/A   Clear
11:35 PM 66.2 °F - 64.4 °F 94% 30.10 in 10.0 mi West 3.5 mph - N/A   Clear
11:55 PM 66.2 °F - 64.4 °F 94% 30.10 in 10.0 mi WSW 3.5 mph - N/A   Clear